Warning: Javascript must be enabled to use all the features on this page!


Page Loading - Please Wait...

* We've detected you're using a mobile device. Find our Next Generation Station Page here.
Click to hideNews Bulletins
  • Explore the NEW USGS National Water Dashboard interactive map to access real-time water data from over 13,500 stations nationwide.
  • Full News RSS icon
  • USGS has scheduled planned maintenance to our IT infrastructure, starting Tuesday, June 28, 2022, from 8:00-10:00am Eastern Daylight Time (EDT). During the maintenance period, there will be a short interruption in the availability of the most recent time-series data. Any backlog will be made available following conclusion of the scheduled maintenance.

Peak Streamflow for the Nation

USGS 01169000 NORTH RIVER AT SHATTUCKVILLE, MA

Franklin County, Massachusetts
Hydrologic Unit Code 01080203
Latitude  42°38'18", Longitude  72°43'32" NAD27
Drainage area 89.0  square miles
Contributing drainage area 89.0  square miles
Gage datum 457.86 feet above NAVD88
Output formats
Table
Graph
Tab-separated file
peakfq (watstore) format
Reselect output format
Water
Year
Date Gage
Height
(feet)
Stream-
flow
(cfs)
1940 1940-04-12 6.43 2,650
1941 1941-02-08 7.571 2,5002,9
1942 1942-03-22 6.38 2,700
1943 1943-04-28 7.00 3,360
1944 1943-11-09 7.66 4,150
1945 1945-04-26 7.85 4,570
1946 1946-03-09 5.83 2,130
1947 1947-04-12 6.84 3,160
1948 1948-03-22 7.82 4,520
1949 1948-12-31 9.62 10,000
1950 1950-04-04 6.08 2,520
1951 1951-03-31 8.32 6,500
1952 1952-06-01 8.09 5,980
1953 1953-03-24 8.32 6,500
1954 1954-09-11 6.54 3,180
1955 1954-11-03 7.44 4,660
1956 1955-10-15 10.37 13,200
1957 1957-01-23 6.002 2,380
1958 1957-12-21 6.68 3,400
1959 1959-04-03 6.39 2,960
1960 1960-09-23 8.83 7,750
1961 1961-04-23 6.48 3,090
1962 1962-04-08 7.05 3,990
1963 1962-12-06 6.85 3,670
1964 1964-04-14 6.53 3,160
1965 1965-04-16 5.45 1,690
1966 1966-03-25 5.38 1,610
1967 1967-04-03 6.25 2,700
1968 1968-04-25 7.64 5,040
1969 1969-04-23 9.32 9,100
1970 1970-02-11 6.94 3,770
1971 1971-08-28 6.44 2,970
1972 1972-05-03 6.96 3,800
1973 1973-06-30 9.41 9,360
1974 1973-12-21 9.60 9,940
1975 1975-07-14 8.16 6,130
1976 1976-08-10 8.80 7,680
1977 1977-03-13 8.47 6,850
1978 1978-01-09 7.88 5,530
1979 1979-05-25 8.61 7,190
1980 1980-04-10 9.52 9,620
1981 1981-02-20 9.832 10,600
1982 1982-04-18 8.16 6,130
1983 1983-04-11 7.82 5,400
1984 1984-04-05 9.77 10,500
1985 1985-09-27 8.98 8,1509
1986 1986-03-19 7.01 3,5509
1987 1987-04-05 11.19 14,2002
1988 1988-04-28 7.03 3,580
1989 1989-05-06 6.97 3,490
1990 1989-10-20 8.69 6,840
1991 1990-10-24 7.16 3,800
1992 1992-03-26 8.36 6,200
1993 1993-04-23 7.62 4,610
1994 1994-04-13 7.13 3,800
1995 1994-12-05 5.93 2,220
1996 1995-11-12 9.10 7,830
1997 1996-12-02 7.09 3,740
1998 1997-11-01 7.44 4,320
1999 1999-03-22 9.01 7,600
2000 2000-07-16 10.15 10,800
2001 2000-12-17 8.01 5,370
2002 2002-05-13 6.24 2,580
2003 2003-09-28 7.02 3,630
2004 2004-04-01 10.20 10,900
2005 2005-04-03 9.94 10,100
2006 2005-10-09 12.32 18,800
2007 2007-04-16 9.58 9,090
2008 2008-03-08 7.82 5,000
2009 2008-12-12 9.03 7,650
2010 2010-03-23 7.90 5,150
2011 2011-08-28 18.17 30,300
2012 2011-12-08 7.63 4,650
2013 2012-12-21 7.18 3,880
2014 2014-06-25 8.14 5,630
2015 2015-09-30 7.79 4,940
2017 2017-02-26 6.73 3,190
2018 2017-10-30 10.74 12,600
2019 2019-04-27 6.692 3,130
2020 2020-04-13 6.52 2,910
?
  Peak Gage-Height Qualification Codes.
?
  Peak Streamflow Qualification Codes.